Terminal Aerodrome Forecast
Issued by NWS

Home | Current Version | Previous Version | Text Only | Print | Product List | Glossary On
Versions: 1 2 3 4 5 6 7 8 9 10 11 12 13 14 15 16 17 18 19 20 21 22
310
FTUS46 KLOX 281132
TAFLGB
TAF
KLGB 281132Z 2812/2912 13008KT P6SM SKC
     FM281500 34008KT P6SM SKC
     FM282000 28012KT P6SM SKC
     FM290200 30018KT P6SM SKC
     FM290600 28012KT P6SM SKC
     FM290800 VRB03KT P6SM SKC=

USA.gov is the U.S. government's official web portal to all federal, state and local government web resources and services.